Time;durP1;ratioP1;P1;durP2;ratioP2;P2;SDS_P1;SDS_P2;PMS_P1;PMS_P2;Temp;Humidity;BMP_temperature;BMP_pressure;BME280_temperature;BME280_humidity;BME280_pressure;Samples;Min_cycle;Max_cycle;Signal;HPM_P1;HPM_P2
2022/07/19 00:00:10;;;;;;;2.00;1.75;;;24.30;58.90;;;;;;6189882;23;20181;-75
2022/07/19 00:02:38;;;;;;;2.67;1.90;;;24.20;59.20;;;;;;6187713;23;20174;-72
2022/07/19 00:05:05;;;;;;;2.42;1.60;;;24.20;59.20;;;;;;6188390;23;20184;-71
2022/07/19 00:07:30;;;;;;;4.03;1.80;;;24.10;59.20;;;;;;6186961;23;20157;-73
2022/07/19 00:09:56;;;;;;;2.83;2.00;;;24.10;59.30;;;;;;6187118;23;20228;-73
2022/07/19 00:12:22;;;;;;;2.17;1.98;;;24.10;59.50;;;;;;6186751;23;20433;-72
2022/07/19 00:14:47;;;;;;;3.13;1.60;;;24.00;59.50;;;;;;6187072;23;20157;-70
2022/07/19 00:17:13;;;;;;;3.65;1.80;;;24.00;59.60;;;;;;6186134;23;20233;-72
2022/07/19 00:19:44;;;;;;;2.95;1.67;;;24.00;59.80;;;;;;6188941;23;20181;-74
2022/07/19 00:22:09;;;;;;;2.08;1.85;;;23.90;59.90;;;;;;6190651;23;20145;-74
2022/07/19 00:24:35;;;;;;;2.17;1.70;;;23.90;60.00;;;;;;6194012;23;20191;-74
2022/07/19 00:27:03;;;;;;;2.10;1.77;;;23.90;60.10;;;;;;6192865;23;20160;-75
2022/07/19 00:29:29;;;;;;;2.15;1.60;;;23.80;60.40;;;;;;6190616;23;20260;-73
2022/07/19 00:31:54;;;;;;;2.67;1.85;;;23.80;60.20;;;;;;6188692;23;20192;-74
2022/07/19 00:34:20;;;;;;;1.92;1.70;;;23.80;60.30;;;;;;6188833;23;20157;-74
2022/07/19 00:36:48;;;;;;;2.38;1.70;;;23.80;60.50;;;;;;6188081;23;20181;-74
2022/07/19 00:39:13;;;;;;;1.88;1.63;;;23.70;60.60;;;;;;6188556;23;20261;-74
2022/07/19 00:41:41;;;;;;;3.33;1.88;;;23.60;60.70;;;;;;6187601;23;20150;-75
2022/07/19 00:44:10;;;;;;;2.08;1.60;;;23.70;61.10;;;;;;6205751;23;20199;-72
2022/07/19 00:46:36;;;;;;;4.03;1.90;;;23.60;61.50;;;;;;6213148;23;20149;-73
2022/07/19 00:49:05;;;;;;;2.03;1.65;;;23.60;61.20;;;;;;6213371;23;20153;-74
2022/07/19 00:51:36;;;;;;;2.72;1.80;;;23.50;61.20;;;;;;6213374;23;20181;-73
2022/07/19 00:54:05;;;;;;;1.98;1.60;;;23.50;61.80;;;;;;6212558;23;20204;-74
2022/07/19 00:56:33;;;;;;;2.42;1.75;;;23.50;61.80;;;;;;6212163;23;20213;-74
2022/07/19 00:59:02;;;;;;;2.42;1.90;;;23.40;61.80;;;;;;6212192;23;20208;-74
2022/07/19 01:01:28;;;;;;;2.60;1.63;;;23.30;62.70;;;;;;6211874;23;20268;-67
2022/07/19 01:03:55;;;;;;;2.38;1.52;;;23.30;62.00;;;;;;6212449;23;20260;-74
2022/07/19 01:06:24;;;;;;;1.77;1.42;;;23.30;62.40;;;;;;6212408;23;20261;-71
2022/07/19 01:08:52;;;;;;;2.97;1.90;;;23.30;62.60;;;;;;6211460;23;20180;-73
2022/07/19 01:11:18;;;;;;;3.50;1.73;;;23.20;62.80;;;;;;6213459;23;20145;-74
2022/07/19 01:13:46;;;;;;;3.97;1.70;;;23.20;63.00;;;;;;6212089;23;20184;-73
2022/07/19 01:16:12;;;;;;;2.47;1.70;;;23.10;63.50;;;;;;6212242;23;20157;-74
2022/07/19 01:18:38;;;;;;;2.20;1.83;;;23.00;63.10;;;;;;6211981;23;20213;-71
2022/07/19 01:21:06;;;;;;;2.53;1.77;;;23.00;63.40;;;;;;6211797;23;20164;-72
2022/07/19 01:23:32;;;;;;;3.92;1.80;;;22.90;63.50;;;;;;6212225;23;20149;-68
2022/07/19 01:26:00;;;;;;;1.75;1.40;;;22.90;63.70;;;;;;6212357;23;20149;-72
2022/07/19 01:28:26;;;;;;;2.15;1.67;;;22.90;64.40;;;;;;6212661;23;20157;-74
2022/07/19 01:30:51;;;;;;;1.77;1.52;;;22.90;64.20;;;;;;6212501;23;20171;-72
2022/07/19 01:33:17;;;;;;;2.30;1.60;;;22.90;64.50;;;;;;6212565;23;20181;-70
2022/07/19 01:35:45;;;;;;;3.92;1.80;;;22.80;64.60;;;;;;6211857;23;20184;-73
2022/07/19 01:38:13;;;;;;;1.77;1.58;;;22.90;64.90;;;;;;6211753;23;20252;-73
2022/07/19 01:40:41;;;;;;;2.30;1.70;;;22.80;64.90;;;;;;6211585;23;20213;-71
2022/07/19 01:43:09;;;;;;;2.90;1.80;;;22.80;65.10;;;;;;6212130;23;20175;-74
2022/07/19 01:45:35;;;;;;;2.30;1.80;;;22.80;65.40;;;;;;6211831;23;20160;-74
2022/07/19 01:48:03;;;;;;;3.75;1.80;;;22.80;65.40;;;;;;6211646;23;20263;-74
2022/07/19 01:50:31;;;;;;;2.88;1.90;;;22.70;65.50;;;;;;6213561;23;20156;-73
2022/07/19 01:52:57;;;;;;;2.60;1.60;;;22.70;66.10;;;;;;6213621;23;20157;-74
2022/07/19 01:55:23;;;;;;;2.58;1.70;;;22.60;65.70;;;;;;6213674;23;20153;-70
2022/07/19 01:57:49;;;;;;;3.28;1.98;;;22.60;66.00;;;;;;6212859;23;20148;-73
2022/07/19 02:00:19;;;;;;;2.88;1.73;;;22.60;66.20;;;;;;6213293;23;20177;-71
2022/07/19 02:02:51;;;;;;;2.15;1.75;;;22.50;66.30;;;;;;6214451;23;20149;-74
2022/07/19 02:05:17;;;;;;;2.10;1.60;;;22.50;66.80;;;;;;6213429;23;20149;-74
2022/07/19 02:07:43;;;;;;;1.92;1.63;;;22.50;66.60;;;;;;6214837;23;20204;-74
2022/07/19 02:10:14;;;;;;;3.13;1.83;;;22.40;66.70;;;;;;6215230;23;20162;-76
2022/07/19 02:12:44;;;;;;;2.95;1.60;;;22.40;66.90;;;;;;6214143;23;20188;-76
2022/07/19 02:15:12;;;;;;;2.42;1.55;;;22.40;67.50;;;;;;6214504;23;20184;-74
2022/07/19 02:17:45;;;;;;;3.25;1.80;;;22.30;67.10;;;;;;6214951;23;20161;-73
2022/07/19 02:20:12;;;;;;;3.15;1.80;;;22.30;67.60;;;;;;6215069;23;20173;-74
2022/07/19 02:22:40;;;;;;;3.95;1.95;;;22.30;67.50;;;;;;6213749;23;20184;-75
2022/07/19 02:25:09;;;;;;;1.85;1.60;;;22.30;67.90;;;;;;6213642;23;20168;-74
2022/07/19 02:27:36;;;;;;;4.93;1.90;;;22.20;67.70;;;;;;6214935;23;20149;-74
2022/07/19 02:30:05;;;;;;;2.72;1.77;;;22.20;67.90;;;;;;6217081;23;20461;-73
2022/07/19 02:32:36;;;;;;;3.63;1.80;;;22.10;67.90;;;;;;6215539;23;20162;-74
2022/07/19 02:35:07;;;;;;;3.05;1.63;;;22.20;68.40;;;;;;6217406;23;20157;-74
2022/07/19 02:37:35;;;;;;;2.20;1.67;;;22.10;68.10;;;;;;6217174;23;20177;-74
2022/07/19 02:40:00;;;;;;;2.75;1.80;;;22.10;68.70;;;;;;6216254;23;20181;-73
2022/07/19 02:42:26;;;;;;;2.42;1.77;;;22.10;68.50;;;;;;6219220;23;20244;-74
2022/07/19 02:44:52;;;;;;;1.70;1.38;;;22.00;68.30;;;;;;6191044;23;20186;-74
2022/07/19 02:47:20;;;;;;;2.50;1.70;;;22.00;68.40;;;;;;6191360;23;20160;-74
2022/07/19 02:49:48;;;;;;;2.15;1.60;;;22.00;68.60;;;;;;6192247;23;20157;-74
2022/07/19 02:52:14;;;;;;;2.08;1.35;;;21.90;69.10;;;;;;6194746;23;20157;-74
2022/07/19 02:54:40;;;;;;;3.47;1.80;;;21.90;68.90;;;;;;6192374;23;20165;-75
2022/07/19 02:57:06;;;;;;;2.33;1.73;;;21.90;69.00;;;;;;6191546;23;20162;-76
2022/07/19 02:59:31;;;;;;;2.42;1.63;;;21.90;69.20;;;;;;6190659;23;20185;-72
2022/07/19 03:01:57;;;;;;;3.17;1.63;;;21.90;69.40;;;;;;6191834;23;20157;-73
2022/07/19 03:04:22;;;;;;;4.90;2.00;;;21.80;69.40;;;;;;6189970;23;20181;-74
2022/07/19 03:06:51;;;;;;;2.03;1.50;;;21.80;69.50;;;;;;6191300;23;20204;-71
2022/07/19 03:09:16;;;;;;;3.20;1.75;;;21.80;70.00;;;;;;6192952;23;20157;-75
2022/07/19 03:11:42;;;;;;;4.43;2.03;;;21.70;69.70;;;;;;6197954;23;20203;-74
2022/07/19 03:14:10;;;;;;;1.90;1.67;;;21.70;69.90;;;;;;6189766;23;20217;-71
2022/07/19 03:16:35;;;;;;;3.53;1.73;;;21.70;70.20;;;;;;6192449;23;20177;-75
2022/07/19 03:19:03;;;;;;;2.42;1.45;;;21.70;70.30;;;;;;6191274;23;20180;-70
2022/07/19 03:21:29;;;;;;;5.20;2.03;;;21.60;70.30;;;;;;6198710;23;20160;-67
2022/07/19 03:23:54;;;;;;;2.72;1.92;;;21.60;70.40;;;;;;6238082;22;20137;-65
2022/07/19 03:26:20;;;;;;;5.43;3.95;;;21.60;70.50;;;;;;6212952;22;20200;-64
2022/07/19 03:28:46;;;;;;;7.00;5.57;;;21.60;70.50;;;;;;6198371;23;20161;-74
2022/07/19 03:31:13;;;;;;;5.65;4.47;;;21.60;70.70;;;;;;6190541;23;20177;-72
2022/07/19 03:33:39;;;;;;;5.10;3.20;;;21.60;70.70;;;;;;6190275;23;20228;-73
2022/07/19 03:36:07;;;;;;;3.65;2.75;;;21.60;70.80;;;;;;6194773;23;20251;-66
2022/07/19 03:38:35;;;;;;;11.32;8.65;;;21.60;70.80;;;;;;6197480;23;20590;-68
2022/07/19 03:41:03;;;;;;;6.03;5.40;;;21.60;71.20;;;;;;6195235;23;20162;-68
2022/07/19 03:43:31;;;;;;;5.22;4.05;;;21.60;71.00;;;;;;6203167;23;20254;-68
2022/07/19 03:45:57;;;;;;;4.47;3.33;;;21.60;70.90;;;;;;6216663;23;20193;-67
2022/07/19 03:48:22;;;;;;;6.13;3.45;;;21.60;71.00;;;;;;6215244;23;20204;-68
2022/07/19 03:50:48;;;;;;;5.57;3.40;;;21.60;71.10;;;;;;6222774;23;20177;-64
2022/07/19 03:53:18;;;;;;;3.75;2.80;;;21.60;71.20;;;;;;6217335;23;20207;-66
2022/07/19 03:55:46;;;;;;;9.13;6.53;;;21.60;71.60;;;;;;6219533;23;20145;-67
2022/07/19 03:58:12;;;;;;;7.30;4.45;;;21.60;71.40;;;;;;6216171;23;20198;-68
2022/07/19 04:00:40;;;;;;;5.90;3.97;;;21.70;71.70;;;;;;6217177;23;20583;-64
2022/07/19 04:03:05;;;;;;;5.43;3.40;;;21.70;71.80;;;;;;6215025;23;20181;-68
2022/07/19 04:05:34;;;;;;;4.30;2.90;;;21.70;71.80;;;;;;6217155;23;20254;-65
2022/07/19 04:08:02;;;;;;;7.30;2.55;;;21.70;72.30;;;;;;6215251;23;20249;-67
2022/07/19 04:10:28;;;;;;;4.63;2.65;;;21.70;72.00;;;;;;6219317;23;20160;-68
2022/07/19 04:12:53;;;;;;;4.50;2.33;;;21.70;72.20;;;;;;6214739;23;20239;-66
2022/07/19 04:15:19;;;;;;;4.80;2.47;;;21.70;72.30;;;;;;6215320;23;20167;-66
2022/07/19 04:17:47;;;;;;;3.65;2.20;;;21.70;72.40;;;;;;6217327;23;20177;-68
2022/07/19 04:20:15;;;;;;;2.33;1.95;;;21.70;72.60;;;;;;6214487;23;20177;-68
2022/07/19 04:22:41;;;;;;;6.32;3.95;;;21.70;73.10;;;;;;6218592;23;20163;-67
2022/07/19 04:25:12;;;;;;;3.28;2.53;;;21.70;72.90;;;;;;6217010;23;20255;-67
2022/07/19 04:27:37;;;;;;;3.13;2.53;;;21.70;73.30;;;;;;6215774;23;20142;-68
2022/07/19 04:30:07;;;;;;;3.88;2.70;;;21.70;73.10;;;;;;6217374;23;20153;-68
2022/07/19 04:32:33;;;;;;;4.88;2.72;;;21.70;73.30;;;;;;6215608;23;20188;-67
2022/07/19 04:35:01;;;;;;;3.53;2.55;;;21.70;73.50;;;;;;6213611;23;20161;-67
2022/07/19 04:37:27;;;;;;;4.43;2.40;;;21.70;73.60;;;;;;6214577;23;20169;-68
2022/07/19 04:39:55;;;;;;;3.75;2.58;;;21.70;73.70;;;;;;6217653;23;20319;-66
2022/07/19 04:42:21;;;;;;;3.72;2.28;;;21.70;73.90;;;;;;6217573;23;20169;-67
2022/07/19 04:44:46;;;;;;;3.08;2.03;;;21.80;74.00;;;;;;6191820;23;20240;-68
2022/07/19 04:47:12;;;;;;;2.33;2.00;;;21.80;74.10;;;;;;6191710;23;20209;-68
2022/07/19 04:49:37;;;;;;;3.83;2.05;;;21.80;74.90;;;;;;6188622;23;20181;-68
2022/07/19 04:52:06;;;;;;;5.68;2.10;;;21.80;74.30;;;;;;6188994;23;20189;-66
2022/07/19 04:54:34;;;;;;;3.17;2.10;;;21.80;74.70;;;;;;6188851;23;20157;-67
2022/07/19 04:57:00;;;;;;;3.15;1.83;;;21.80;74.50;;;;;;6188699;23;20154;-66
2022/07/19 04:59:25;;;;;;;3.42;1.75;;;21.90;74.60;;;;;;6188585;23;20193;-68
2022/07/19 05:01:51;;;;;;;2.47;1.90;;;21.80;74.50;;;;;;6188808;23;20157;-68
2022/07/19 05:04:19;;;;;;;2.65;1.75;;;21.90;74.70;;;;;;6188176;23;20235;-67
2022/07/19 05:06:45;;;;;;;2.15;1.80;;;21.90;75.00;;;;;;6187608;23;20153;-66
2022/07/19 05:09:11;;;;;;;2.30;1.67;;;21.90;74.90;;;;;;6189488;23;20157;-68
2022/07/19 05:11:37;;;;;;;3.50;1.60;;;22.00;75.70;;;;;;6215514;23;20260;-70
2022/07/19 05:14:02;;;;;;;3.30;1.90;;;22.00;75.10;;;;;;6189760;23;20149;-68
2022/07/19 05:16:30;;;;;;;4.40;1.65;;;22.00;75.20;;;;;;6189593;23;20165;-73
2022/07/19 05:18:56;;;;;;;3.30;1.70;;;22.00;75.50;;;;;;6189400;23;20347;-70
2022/07/19 05:21:21;;;;;;;2.72;1.73;;;22.10;75.60;;;;;;6189155;23;20149;-72
2022/07/19 05:23:52;;;;;;;4.00;1.50;;;22.10;75.70;;;;;;6188927;23;20191;-72
2022/07/19 05:26:17;;;;;;;2.58;1.80;;;22.10;75.90;;;;;;6189175;23;20228;-73
2022/07/19 05:28:43;;;;;;;2.90;1.70;;;22.20;75.90;;;;;;6190113;23;20196;-72
2022/07/19 05:31:11;;;;;;;2.72;1.80;;;22.20;75.90;;;;;;6190191;23;20213;-72
2022/07/19 05:33:36;;;;;;;2.47;1.80;;;22.30;76.30;;;;;;6188473;23;20165;-70
2022/07/19 05:36:02;;;;;;;2.35;1.65;;;22.30;76.00;;;;;;6190318;23;20357;-71
2022/07/19 05:38:34;;;;;;;4.72;1.90;;;22.40;76.10;;;;;;6189473;23;20235;-71
2022/07/19 05:41:00;;;;;;;2.92;2.15;;;22.40;76.40;;;;;;6189987;23;20153;-71
2022/07/19 05:43:30;;;;;;;5.70;2.10;;;22.40;76.30;;;;;;6199691;23;20176;-71
2022/07/19 05:45:59;;;;;;;3.05;1.90;;;22.50;76.70;;;;;;6214900;23;20216;-71
2022/07/19 05:48:26;;;;;;;4.90;1.98;;;22.50;77.20;;;;;;6214226;23;20153;-72
2022/07/19 05:50:52;;;;;;;2.70;1.88;;;22.60;76.50;;;;;;6214540;23;20150;-71
2022/07/19 05:53:18;;;;;;;6.00;2.10;;;22.60;76.60;;;;;;6214074;23;20433;-71
2022/07/19 05:55:47;;;;;;;4.80;2.08;;;22.70;76.70;;;;;;6213817;23;20154;-71
2022/07/19 05:58:13;;;;;;;3.90;1.92;;;22.80;76.60;;;;;;6214657;23;20157;-71
2022/07/19 06:01:17;;;;;;;4.60;1.83;;;22.80;76.40;;;;;;6213770;23;20248;-72
2022/07/19 06:03:24;;;;;;;3.60;2.00;;;22.90;76.30;;;;;;6216707;23;20156;-72
2022/07/19 06:05:50;;;;;;;4.82;1.65;;;22.90;76.10;;;;;;6216639;23;20245;-71
2022/07/19 06:08:18;;;;;;;3.47;2.45;;;23.00;76.10;;;;;;6216416;23;20204;-71
2022/07/19 06:10:44;;;;;;;3.53;1.95;;;23.10;76.20;;;;;;6216518;23;20153;-69
2022/07/19 06:13:12;;;;;;;2.25;1.88;;;23.10;76.10;;;;;;6216236;23;20239;-71
2022/07/19 06:15:37;;;;;;;3.25;1.70;;;23.20;76.00;;;;;;6216715;23;20226;-72
2022/07/19 06:18:06;;;;;;;4.05;1.63;;;23.30;75.80;;;;;;6214984;23;20150;-72
2022/07/19 06:20:33;;;;;;;4.65;1.55;;;23.40;75.90;;;;;;6214966;23;20235;-73
2022/07/19 06:22:59;;;;;;;3.03;1.80;;;23.40;75.70;;;;;;6215192;23;20200;-71
2022/07/19 06:25:25;;;;;;;2.45;1.85;;;23.50;75.60;;;;;;6214608;23;20185;-71
2022/07/19 06:27:50;;;;;;;2.65;1.73;;;23.60;75.60;;;;;;6216040;23;20558;-73
2022/07/19 06:30:16;;;;;;;2.72;1.85;;;23.60;75.70;;;;;;6215692;23;20179;-72
2022/07/19 06:32:46;;;;;;;2.90;1.80;;;23.70;75.60;;;;;;6218513;23;20188;-70
2022/07/19 06:35:12;;;;;;;3.80;2.10;;;23.80;75.70;;;;;;6218017;23;20173;-72
2022/07/19 06:37:40;;;;;;;4.28;1.90;;;23.80;75.40;;;;;;6216200;23;20154;-72
2022/07/19 06:40:06;;;;;;;12.05;1.98;;;23.90;75.20;;;;;;6215762;23;20197;-72
2022/07/19 06:42:34;;;;;;;2.80;1.60;;;24.00;75.10;;;;;;6220957;23;20237;-73
2022/07/19 06:45:02;;;;;;;3.78;1.70;;;24.10;75.10;;;;;;6191341;23;20247;-73
2022/07/19 06:47:29;;;;;;;2.72;1.70;;;24.10;75.00;;;;;;6192893;23;20194;-70
2022/07/19 06:49:57;;;;;;;2.60;1.75;;;24.20;74.90;;;;;;6193929;23;20162;-72
2022/07/19 06:52:22;;;;;;;3.88;1.70;;;24.30;74.80;;;;;;6192002;23;20260;-71
2022/07/19 06:54:50;;;;;;;3.25;1.80;;;24.40;74.80;;;;;;6195889;23;20164;-71
2022/07/19 06:57:16;;;;;;;3.33;1.88;;;24.50;74.70;;;;;;6191183;23;20153;-71
2022/07/19 06:59:42;;;;;;;2.70;1.80;;;24.50;74.40;;;;;;6190060;23;20200;-71
2022/07/19 07:02:07;;;;;;;3.30;1.80;;;24.60;74.20;;;;;;6194943;23;20153;-71
2022/07/19 07:04:36;;;;;;;3.45;1.77;;;24.70;73.90;;;;;;6189404;23;20153;-70
2022/07/19 07:07:01;;;;;;;1.98;1.77;;;24.80;73.90;;;;;;6188939;23;20153;-69
2022/07/19 07:09:27;;;;;;;3.03;1.85;;;24.90;73.80;;;;;;6189834;23;20192;-71
2022/07/19 07:11:55;;;;;;;4.57;1.92;;;25.00;73.50;;;;;;6190803;23;20181;-69
2022/07/19 07:14:20;;;;;;;2.78;1.70;;;25.20;73.40;;;;;;6215798;23;20194;-71
2022/07/19 07:16:46;;;;;;;4.95;2.15;;;25.30;73.10;;;;;;6189994;23;20157;-71
2022/07/19 07:19:16;;;;;;;4.05;1.52;;;25.40;72.70;;;;;;6195979;23;20185;-73
2022/07/19 07:21:42;;;;;;;3.20;1.90;;;25.50;72.40;;;;;;6195835;23;20181;-69
2022/07/19 07:24:07;;;;;;;3.50;1.73;;;25.60;72.20;;;;;;6190707;23;20159;-73
2022/07/19 07:26:33;;;;;;;3.08;1.67;;;25.70;71.90;;;;;;6194544;23;20216;-73
2022/07/19 07:28:59;;;;;;;2.42;1.50;;;25.80;71.70;;;;;;6192367;23;20157;-75
2022/07/19 07:31:27;;;;;;;2.75;1.83;;;25.90;71.40;;;;;;6192264;23;20165;-73
2022/07/19 07:33:55;;;;;;;3.60;1.88;;;26.10;71.00;;;;;;6190410;23;20154;-72
2022/07/19 07:36:22;;;;;;;3.55;1.50;;;26.20;70.50;;;;;;6190638;23;20181;-71
2022/07/19 07:38:51;;;;;;;4.57;1.65;;;26.30;70.00;;;;;;6193572;23;20177;-71
2022/07/19 07:41:16;;;;;;;2.65;1.70;;;26.40;69.80;;;;;;6194069;23;20154;-71
2022/07/19 07:43:42;;;;;;;4.35;1.70;;;26.50;69.10;;;;;;6204675;23;20192;-72
2022/07/19 07:46:08;;;;;;;2.33;1.58;;;26.70;69.10;;;;;;6222550;23;20177;-70
2022/07/19 07:48:36;;;;;;;3.38;1.80;;;26.80;68.50;;;;;;6216013;23;20230;-72
2022/07/19 07:51:02;;;;;;;2.63;1.73;;;26.90;68.50;;;;;;6214602;23;20156;-75
2022/07/19 07:53:30;;;;;;;2.72;1.75;;;27.00;68.00;;;;;;6213870;23;20153;-71
2022/07/19 07:55:56;;;;;;;5.57;2.03;;;27.20;68.00;;;;;;6222190;23;20153;-74
2022/07/19 07:58:24;;;;;;;2.15;1.52;;;27.30;67.60;;;;;;6220158;23;20181;-74
2022/07/19 08:00:49;;;;;;;3.33;1.50;;;27.40;67.40;;;;;;6218243;23;20153;-75
2022/07/19 08:03:16;;;;;;;4.95;1.52;;;27.50;66.30;;;;;;6218581;23;20184;-73
2022/07/19 08:05:43;;;;;;;5.07;1.90;;;27.60;65.90;;;;;;6220996;23;20156;-72
2022/07/19 08:08:12;;;;;;;3.08;1.85;;;27.70;65.60;;;;;;6217746;23;20184;-74
2022/07/19 08:10:37;;;;;;;3.20;1.98;;;27.90;65.60;;;;;;6220435;23;20164;-73
2022/07/19 08:13:03;;;;;;;4.72;1.60;;;28.00;65.20;;;;;;6216056;23;20154;-72
2022/07/19 08:15:29;;;;;;;2.58;1.52;;;28.10;63.80;;;;;;6217871;23;20153;-72
2022/07/19 08:17:54;;;;;;;2.55;1.70;;;28.20;63.80;;;;;;6215507;23;20150;-73
2022/07/19 08:20:20;;;;;;;3.08;1.73;;;28.40;63.00;;;;;;6219607;23;20178;-73
2022/07/19 08:22:48;;;;;;;3.00;1.85;;;28.50;62.70;;;;;;6215234;23;20573;-77
2022/07/19 08:25:16;;;;;;;2.22;1.55;;;28.60;62.40;;;;;;6215469;23;20153;-76
2022/07/19 08:27:43;;;;;;;3.15;1.77;;;28.80;61.90;;;;;;6213594;23;20154;-74
2022/07/19 08:30:10;;;;;;;4.40;1.73;;;28.90;61.30;;;;;;6221126;23;20375;-68
2022/07/19 08:32:37;;;;;;;4.13;1.80;;;29.00;60.40;;;;;;6216134;23;20160;-71
2022/07/19 08:35:06;;;;;;;2.55;1.88;;;29.10;59.70;;;;;;6214815;23;20153;-74
2022/07/19 08:37:32;;;;;;;3.00;1.85;;;29.30;58.90;;;;;;6216602;23;20154;-73
2022/07/19 08:39:58;;;;;;;2.83;1.88;;;29.40;59.10;;;;;;6218267;23;20180;-75
2022/07/19 08:42:27;;;;;;;3.78;1.70;;;29.50;59.40;;;;;;6215847;23;20173;-74
2022/07/19 08:44:54;;;;;;;3.08;1.75;;;29.70;58.50;;;;;;6194423;23;20218;-75
2022/07/19 08:47:21;;;;;;;2.40;1.75;;;29.80;58.50;;;;;;6190876;23;20149;-74
2022/07/19 08:49:48;;;;;;;2.08;1.50;;;29.90;58.40;;;;;;6192736;23;20161;-75
2022/07/19 08:52:14;;;;;;;2.83;1.70;;;30.00;58.30;;;;;;6194377;23;20152;-76
2022/07/19 08:54:39;;;;;;;4.03;1.73;;;30.20;57.90;;;;;;6191275;23;20177;-74
2022/07/19 08:59:54;;;;;;;3.10;1.33;;;30.40;57.40;;;;;;6185527;23;20185;-75
2022/07/19 09:02:22;;;;;;;3.92;1.67;;;30.50;56.60;;;;;;6190213;23;20156;-75
2022/07/19 09:05:09;;;;;;;2.70;1.52;;;30.60;56.00;;;;;;6189416;23;20156;-75
2022/07/19 09:07:40;;;;;;;2.78;1.55;;;30.80;54.30;;;;;;6195045;23;20176;-74
2022/07/19 09:10:25;;;;;;;4.07;1.33;;;30.90;55.50;;;;;;6191459;23;20157;-76
2022/07/19 09:13:06;;;;;;;3.05;1.55;;;31.00;53.10;;;;;;6189298;23;20201;-75
2022/07/19 09:15:37;;;;;;;3.90;1.63;;;31.20;54.40;;;;;;6189808;23;20152;-72
2022/07/19 09:18:11;;;;;;;2.63;1.50;;;31.30;53.70;;;;;;6192750;23;20153;-74
2022/07/19 09:20:37;;;;;;;1.88;1.52;;;31.40;52.80;;;;;;6188631;23;20200;-74
2022/07/19 09:23:05;;;;;;;3.25;1.75;;;31.50;53.40;;;;;;6188604;23;20149;-70
2022/07/19 09:25:35;;;;;;;3.17;1.40;;;31.60;53.50;;;;;;6188509;23;20196;-74
2022/07/19 09:28:04;;;;;;;2.47;1.50;;;31.80;53.30;;;;;;6188402;23;20152;-72
2022/07/19 09:30:41;;;;;;;2.67;1.50;;;31.90;53.50;;;;;;6188344;23;20159;-73
2022/07/19 09:33:09;;;;;;;3.35;1.77;;;32.00;51.60;;;;;;6189478;23;20255;-75
2022/07/19 09:35:37;;;;;;;2.08;1.50;;;32.20;51.30;;;;;;6188779;23;20153;-73
2022/07/19 09:38:34;;;;;;;2.25;1.55;;;32.30;51.80;;;;;;6188601;23;20152;-73
2022/07/19 09:41:15;;;;;;;1.85;1.52;;;32.40;48.80;;;;;;6171479;23;20226;-73
2022/07/19 09:44:00;;;;;;;3.03;1.42;;;32.60;49.30;;;;;;6200103;23;20245;-76
2022/07/19 09:46:36;;;;;;;6.40;1.33;;;32.70;48.40;;;;;;6216472;23;20177;-77
2022/07/19 09:49:13;;;;;;;3.13;1.60;;;32.80;48.60;;;;;;6215684;23;20152;-75
2022/07/19 09:51:41;;;;;;;2.70;1.65;;;33.00;48.10;;;;;;6215116;23;20183;-73
2022/07/19 09:54:10;;;;;;;1.35;1.17;;;33.10;48.60;;;;;;6215162;23;20195;-73
2022/07/19 09:56:40;;;;;;;2.30;1.40;;;33.10;48.00;;;;;;6213483;23;20164;-73
2022/07/19 09:59:07;;;;;;;1.88;1.27;;;33.30;46.80;;;;;;6218418;23;20263;-72
2022/07/19 10:01:35;;;;;;;2.30;1.48;;;33.30;46.60;;;;;;6219676;23;20180;-73
2022/07/19 10:04:18;;;;;;;3.88;1.83;;;33.40;46.20;;;;;;6217721;23;20141;-73
2022/07/19 10:06:47;;;;;;;1.83;1.33;;;33.60;45.70;;;;;;6215281;23;20145;-73
2022/07/19 10:09:15;;;;;;;1.40;1.10;;;33.70;46.20;;;;;;6214795;23;20256;-74
2022/07/19 10:11:41;;;;;;;3.10;1.55;;;33.80;45.80;;;;;;6214390;23;20181;-71
2022/07/19 10:14:11;;;;;;;2.47;1.42;;;33.90;45.50;;;;;;6214059;23;20161;-71
2022/07/19 10:16:58;;;;;;;2.30;1.48;;;34.00;44.90;;;;;;6214229;23;20184;-73
2022/07/19 10:19:45;;;;;;;2.05;1.50;;;34.10;43.30;;;;;;6213895;23;20177;-72
2022/07/19 10:22:17;;;;;;;2.35;1.42;;;34.20;43.20;;;;;;6214092;23;20423;-72
2022/07/19 10:24:44;;;;;;;2.85;1.70;;;34.30;43.10;;;;;;6214128;23;20149;-73
2022/07/19 10:27:10;;;;;;;2.25;1.48;;;34.40;42.80;;;;;;6213743;23;20149;-74
2022/07/19 10:29:38;;;;;;;3.75;1.77;;;34.50;42.30;;;;;;6213559;23;20187;-75
2022/07/19 10:32:06;;;;;;;2.15;1.60;;;34.60;42.10;;;;;;6213829;23;20156;-75
2022/07/19 10:34:35;;;;;;;1.92;1.38;;;34.70;41.90;;;;;;6213896;23;20184;-72
2022/07/19 10:37:03;;;;;;;2.10;1.30;;;34.80;41.90;;;;;;6213462;23;20299;-72
2022/07/19 10:39:34;;;;;;;2.05;1.42;;;34.90;41.40;;;;;;6214809;23;20173;-73
2022/07/19 10:42:19;;;;;;;2.13;1.40;;;35.10;41.20;;;;;;6214266;23;20248;-77
2022/07/19 10:47:45;;;;;;;3.17;1.48;;;35.60;38.30;;;;;;6215738;23;20149;-74
2022/07/19 10:50:24;;;;;;;1.65;1.30;;;35.80;38.70;;;;;;6215422;23;20206;-75
2022/07/19 10:52:51;;;;;;;3.38;1.10;;;35.90;40.30;;;;;;6215334;23;20165;-73
2022/07/19 10:57:47;;;;;;;1.85;1.30;;;36.30;40.80;;;;;;6218346;23;20227;-71
2022/07/19 11:00:28;;;;;;;2.03;1.30;;;36.50;40.70;;;;;;6214320;23;20191;-82
2022/07/19 11:03:22;;;;;;;1.63;1.30;;;36.70;37.20;;;;;;6215165;23;20244;-78
2022/07/19 11:05:49;;;;;;;1.73;1.30;;;36.80;38.70;;;;;;6214809;23;20163;-74
2022/07/19 11:08:18;;;;;;;2.08;1.50;;;36.90;39.90;;;;;;6215373;23;21204;-78
2022/07/19 11:10:45;;;;;;;1.55;1.30;;;37.00;38.90;;;;;;6215959;23;20137;-76
2022/07/19 11:13:20;;;;;;;3.13;1.35;;;37.10;38.80;;;;;;6215085;23;20224;-72
2022/07/19 11:15:58;;;;;;;1.65;1.15;;;37.20;38.30;;;;;;6217277;23;20172;-75
2022/07/19 11:18:24;;;;;;;1.83;1.20;;;37.30;38.30;;;;;;6216398;23;20168;-75
2022/07/19 11:20:52;;;;;;;2.58;1.30;;;37.40;38.10;;;;;;6216616;23;20255;-75
2022/07/19 11:23:20;;;;;;;1.50;1.40;;;37.40;38.40;;;;;;6217648;23;20149;-75
2022/07/19 11:25:46;;;;;;;2.60;1.50;;;37.40;38.40;;;;;;6216243;23;20159;-76
2022/07/19 11:28:27;;;;;;;3.30;1.48;;;37.50;38.10;;;;;;6215497;23;20177;-74
2022/07/19 11:30:55;;;;;;;3.38;1.20;;;37.70;36.70;;;;;;6213584;23;20164;-75
2022/07/19 11:33:21;;;;;;;1.77;1.15;;;37.90;37.80;;;;;;6216886;23;20256;-77
2022/07/19 11:35:57;;;;;;;2.38;1.40;;;38.00;37.50;;;;;;6214059;23;20153;-73
2022/07/19 11:38:32;;;;;;;1.30;1.20;;;38.10;36.80;;;;;;6213035;23;20207;-75
2022/07/19 11:40:58;;;;;;;2.10;1.30;;;38.20;37.70;;;;;;6213034;23;20221;-75
2022/07/19 11:43:26;;;;;;;1.90;1.27;;;38.30;37.10;;;;;;6215273;23;20176;-73
2022/07/19 11:45:52;;;;;;;1.98;1.20;;;38.40;36.60;;;;;;6229281;23;20195;-72
2022/07/19 11:48:29;;;;;;;1.52;1.10;;;38.50;36.60;;;;;;6220411;23;20176;-72
2022/07/19 11:51:04;;;;;;;2.15;1.45;;;38.50;35.80;;;;;;6227015;23;20235;-74
2022/07/19 11:53:31;;;;;;;1.45;1.20;;;38.60;34.70;;;;;;6228004;23;20180;-73
2022/07/19 11:55:57;;;;;;;2.33;1.38;;;38.60;35.90;;;;;;6221790;23;20153;-70
2022/07/19 11:58:23;;;;;;;1.40;1.20;;;38.70;35.70;;;;;;6216242;23;20149;-74
2022/07/19 12:00:49;;;;;;;2.03;1.40;;;38.80;36.00;;;;;;6221528;23;20235;-71
2022/07/19 12:03:18;;;;;;;1.80;1.40;;;38.90;35.20;;;;;;6224981;23;20159;-72
2022/07/19 12:06:05;;;;;;;2.20;1.50;;;39.00;34.90;;;;;;6222335;23;20176;-73
2022/07/19 12:08:38;;;;;;;1.85;1.35;;;39.20;34.40;;;;;;6218166;23;20152;-72
2022/07/19 12:11:18;;;;;;;2.22;1.23;;;39.30;34.40;;;;;;6218791;23;20149;-73
2022/07/19 12:13:44;;;;;;;1.73;1.40;;;39.40;34.00;;;;;;6215484;23;20177;-76
2022/07/19 12:16:13;;;;;;;2.45;1.60;;;39.50;35.20;;;;;;6218444;23;20164;-71
2022/07/19 12:19:12;;;;;;;1.60;1.40;;;39.70;34.90;;;;;;6224865;23;20161;-72
2022/07/19 12:21:40;;;;;;;1.83;1.67;;;39.90;34.30;;;;;;6203452;23;20184;-74
2022/07/19 12:24:12;;;;;;;1.50;1.40;;;40.00;34.40;;;;;;6217274;23;20176;-72
2022/07/19 12:26:39;;;;;;;3.40;1.60;;;40.10;34.20;;;;;;6216800;23;20704;-72
2022/07/19 12:29:24;;;;;;;2.13;1.70;;;40.20;34.00;;;;;;6225434;23;20153;-79
2022/07/19 12:31:53;;;;;;;2.20;1.70;;;40.30;32.00;;;;;;6220151;23;20199;-72
2022/07/19 12:34:19;;;;;;;2.67;1.45;;;40.40;33.10;;;;;;6217546;23;20167;-73
2022/07/19 12:36:48;;;;;;;2.05;1.52;;;40.40;32.50;;;;;;6217502;23;20153;-71
2022/07/19 12:39:30;;;;;;;1.85;1.60;;;40.30;32.60;;;;;;6219677;23;20214;-74
2022/07/19 12:42:07;;;;;;;2.95;1.55;;;40.30;30.90;;;;;;6218808;23;20144;-69
2022/07/19 12:44:34;;;;;;;3.03;1.42;;;40.30;31.40;;;;;;6221680;23;20180;-71
2022/07/19 12:47:01;;;;;;;3.25;2.08;;;40.30;31.60;;;;;;6222457;23;20220;-69
2022/07/19 12:49:43;;;;;;;2.53;1.58;;;40.30;31.00;;;;;;6219242;23;20164;-71
2022/07/19 12:52:11;;;;;;;3.28;1.70;;;40.40;30.80;;;;;;6215462;23;20159;-73
2022/07/19 12:54:37;;;;;;;2.30;1.60;;;40.40;31.70;;;;;;6217191;23;20180;-73
2022/07/19 12:57:05;;;;;;;3.25;1.58;;;40.50;31.90;;;;;;6214735;23;20183;-72
2022/07/19 12:59:39;;;;;;;4.22;1.55;;;40.50;31.60;;;;;;6217963;23;20519;-74
2022/07/19 13:02:16;;;;;;;1.73;1.13;;;40.60;31.10;;;;;;6215493;23;20148;-76